Time,TemperatureF,DewpointF,PressureIn,WindDirection,WindDirectionDegrees,WindSpeedMPH,WindSpeedGustMPH,Humidity,HourlyPrecipIn,Conditions,Clouds,dailyrainin,SoftwareType,DateUTC
2013-05-14 00:01:00,74.2,64.6,30.05,NE,34,5.8,5.8,72,0.00,RA,,0.00,WeatherDisplay:10.37,2013-05-14 04:01:00,
2013-05-14 00:06:00,74.2,64.6,30.05,NE,42,5.8,5.8,72,0.00,RA,,0.00,WeatherDisplay:10.37,2013-05-14 04:06:00,
2013-05-14 00:11:00,74.1,64.5,30.05,NE,38,5.8,5.8,72,0.00,CLR,,0.00,WeatherDisplay:10.37,2013-05-14 04:11:00,
2013-05-14 00:16:00,74.1,64.5,30.06,NNE,17,4.6,4.6,72,0.00,CLR,,0.00,WeatherDisplay:10.37,2013-05-14 04:16:00,
2013-05-14 00:21:00,74.0,64.4,30.05,NE,46,3.5,3.5,72,0.00,CLR,,0.00,WeatherDisplay:10.37,2013-05-14 04:21:00,
2013-05-14 00:26:00,74.0,64.8,30.05,NE,40,3.5,3.5,73,0.00,CLR,,0.00,WeatherDisplay:10.37,2013-05-14 04:26:00,
2013-05-14 00:31:00,73.9,64.7,30.05,NNE,25,4.6,4.6,73,0.00,CLR,,0.00,WeatherDisplay:10.37,2013-05-14 04:31:00,
2013-05-14 00:36:00,73.9,64.7,30.05,NNE,26,3.5,3.5,73,0.00,CLR,,0.00,WeatherDisplay:10.37,2013-05-14 04:36:00,
2013-05-14 00:41:00,73.8,64.6,30.05,NNE,26,4.6,4.6,73,0.00,CLR,,0.00,WeatherDisplay:10.37,2013-05-14 04:41:00,
2013-05-14 00:46:00,73.7,64.9,30.05,North,355,4.6,4.6,74,0.00,CLR,,0.00,WeatherDisplay:10.37,2013-05-14 04:46:00,
2013-05-14 00:51:00,73.7,64.9,30.05,NNE,26,4.6,4.6,74,0.00,CLR,,0.00,WeatherDisplay:10.37,2013-05-14 04:51:00,
2013-05-14 00:56:00,73.6,64.8,30.05,NE,34,5.0,5.0,74,0.00,CLR,,0.00,WeatherDisplay:10.37,2013-05-14 04:56:00,
2013-05-14 01:01:00,73.5,64.7,30.05,NNE,21,4.6,4.6,74,0.00,CLR,,0.00,WeatherDisplay:10.37,2013-05-14 05:01:00,
2013-05-14 01:06:00,73.5,64.7,30.05,NNE,17,6.0,6.0,74,0.00,CLR,,0.00,WeatherDisplay:10.37,2013-05-14 05:06:00,
2013-05-14 01:11:00,73.4,64.6,30.05,NNE,23,6.0,6.0,74,0.00,CLR,,0.00,WeatherDisplay:10.37,2013-05-14 05:11:00,
2013-05-14 01:16:00,73.4,64.6,30.05,NNE,22,5.8,5.8,74,0.00,CLR,,0.00,WeatherDisplay:10.37,2013-05-14 05:16:00,
2013-05-14 01:21:00,73.4,64.6,30.04,NE,38,5.8,5.8,74,0.00,CLR,,0.00,WeatherDisplay:10.37,2013-05-14 05:21:00,
2013-05-14 01:26:00,73.4,64.6,30.04,NE,53,5.0,5.0,74,0.00,CLR,,0.00,WeatherDisplay:10.37,2013-05-14 05:26:00,
2013-05-14 01:31:00,73.3,64.5,30.05,NE,40,6.9,6.9,74,0.00,CLR,,0.00,WeatherDisplay:10.37,2013-05-14 05:31:00,
2013-05-14 01:36:00,73.3,64.5,30.04,NNE,24,4.6,4.6,74,0.00,CLR,,0.00,WeatherDisplay:10.37,2013-05-14 05:36:00,
2013-05-14 01:41:00,73.2,64.8,30.04,NE,39,6.9,6.9,75,0.00,CLR,,0.00,WeatherDisplay:10.37,2013-05-14 05:41:00,
2013-05-14 01:46:00,73.1,64.7,30.04,NE,36,10.4,10.4,75,0.00,CLR,,0.00,WeatherDisplay:10.37,2013-05-14 05:46:00,
2013-05-14 01:51:00,73.1,64.7,30.04,NE,38,5.8,5.8,75,0.00,CLR,,0.00,WeatherDisplay:10.37,2013-05-14 05:51:00,
2013-05-14 01:56:00,73.1,64.7,30.04,NNE,31,5.8,5.8,75,0.00,CLR,,0.00,WeatherDisplay:10.37,2013-05-14 05:56:00,
2013-05-14 02:01:00,73.1,64.7,30.04,NE,41,5.0,5.0,75,0.00,CLR,,0.00,WeatherDisplay:10.37,2013-05-14 06:01:00,
2013-05-14 02:06:00,73.1,64.7,30.04,NE,55,5.8,5.8,75,0.00,CLR,,0.00,WeatherDisplay:10.37,2013-05-14 06:06:00,
2013-05-14 02:11:00,73.0,64.6,30.04,NNE,26,5.8,5.8,75,0.00,CLR,,0.00,WeatherDisplay:10.37,2013-05-14 06:11:00,
2013-05-14 02:16:00,72.9,64.9,30.04,NNE,30,4.0,4.0,76,0.00,CLR,,0.00,WeatherDisplay:10.37,2013-05-14 06:16:00,
2013-05-14 02:21:00,72.7,64.7,30.04,NNE,15,3.5,3.5,76,0.00,CLR,,0.00,WeatherDisplay:10.37,2013-05-14 06:21:00,
2013-05-14 02:26:00,72.6,64.6,30.04,NNE,27,3.5,3.5,76,0.00,CLR,,0.00,WeatherDisplay:10.37,2013-05-14 06:26:00,
2013-05-14 02:31:00,72.5,64.5,30.04,NNE,22,4.6,4.6,76,0.00,CLR,,0.00,WeatherDisplay:10.37,2013-05-14 06:31:00,
2013-05-14 02:36:00,72.4,64.4,30.04,North,355,4.0,4.0,76,0.00,CLR,,0.00,WeatherDisplay:10.37,2013-05-14 06:36:00,
2013-05-14 02:41:00,72.4,64.4,30.04,NE,38,3.5,3.5,76,0.00,CLR,,0.00,WeatherDisplay:10.37,2013-05-14 06:41:00,
2013-05-14 02:46:00,72.2,64.2,30.04,North,360,5.8,5.8,76,0.00,CLR,,0.00,WeatherDisplay:10.37,2013-05-14 06:46:00,
2013-05-14 02:51:00,72.2,64.2,30.05,NNE,24,5.0,5.0,76,0.00,CLR,,0.00,WeatherDisplay:10.37,2013-05-14 06:51:00,
2013-05-14 02:56:00,72.1,64.1,30.05,NE,40,6.9,6.9,76,0.00,CLR,,0.00,WeatherDisplay:10.37,2013-05-14 06:56:00,
2013-05-14 03:01:00,72.1,63.7,30.05,NNE,31,10.4,10.4,75,0.00,CLR,,0.00,WeatherDisplay:10.37,2013-05-14 07:01:00,
2013-05-14 03:06:00,72.1,63.7,30.05,NNE,28,10.4,10.4,75,0.00,CLR,,0.00,WeatherDisplay:10.37,2013-05-14 07:06:00,
2013-05-14 03:11:00,72.1,63.4,30.05,NNE,28,5.8,5.8,74,0.00,CLR,,0.00,WeatherDisplay:10.37,2013-05-14 07:11:00,
2013-05-14 03:16:00,72.1,63.4,30.05,NNE,27,7.0,7.0,74,0.00,CLR,,0.00,WeatherDisplay:10.37,2013-05-14 07:16:00,
2013-05-14 03:21:00,72.1,63.0,30.05,NE,36,6.9,6.9,73,0.00,CLR,,0.00,WeatherDisplay:10.37,2013-05-14 07:21:00,
2013-05-14 03:26:00,72.1,63.0,30.05,NNE,16,6.9,6.9,73,0.00,CLR,,0.00,WeatherDisplay:10.37,2013-05-14 07:26:00,
2013-05-14 03:31:00,72.1,63.0,30.05,NE,51,5.0,5.0,73,0.00,CLR,,0.00,WeatherDisplay:10.37,2013-05-14 07:31:00,
2013-05-14 03:36:00,72.0,62.5,30.05,North,355,5.8,5.8,72,0.00,CLR,,0.00,WeatherDisplay:10.37,2013-05-14 07:36:00,
2013-05-14 03:41:00,71.9,62.4,30.05,NNE,13,9.2,9.2,72,0.00,CLR,,0.00,WeatherDisplay:10.37,2013-05-14 07:41:00,
2013-05-14 03:46:00,71.8,62.3,30.05,NNE,16,3.5,3.5,72,0.00,CLR,,0.00,WeatherDisplay:10.37,2013-05-14 07:46:00,
2013-05-14 03:51:00,71.8,62.3,30.05,NNE,30,9.2,9.2,72,0.00,CLR,,0.00,WeatherDisplay:10.37,2013-05-14 07:51:00,
2013-05-14 03:56:00,71.7,61.8,30.05,NNE,15,5.8,5.8,71,0.00,CLR,,0.00,WeatherDisplay:10.37,2013-05-14 07:56:00,
2013-05-14 04:01:00,71.7,61.8,30.05,North,10,9.2,9.2,71,0.00,CLR,,0.00,WeatherDisplay:10.37,2013-05-14 08:01:00,
2013-05-14 04:06:00,71.7,61.8,30.05,NNE,19,4.6,4.6,71,0.00,CLR,,0.00,WeatherDisplay:10.37,2013-05-14 08:06:00,
2013-05-14 04:11:00,71.5,61.6,30.05,NNE,19,5.8,5.8,71,0.00,CLR,,0.00,WeatherDisplay:10.37,2013-05-14 08:11:00,
2013-05-14 04:16:00,71.4,61.5,30.05,North,351,5.8,5.8,71,0.00,CLR,,0.00,WeatherDisplay:10.37,2013-05-14 08:16:00,
2013-05-14 04:21:00,71.3,61.4,30.05,NE,35,5.0,5.0,71,0.00,CLR,,0.00,WeatherDisplay:10.37,2013-05-14 08:21:00,
2013-05-14 04:26:00,71.3,61.0,30.05,NNE,14,5.8,5.8,70,0.00,CLR,,0.00,WeatherDisplay:10.37,2013-05-14 08:26:00,
2013-05-14 04:31:00,71.2,60.9,30.05,North,355,6.0,6.0,70,0.00,CLR,,0.00,WeatherDisplay:10.37,2013-05-14 08:31:00,
2013-05-14 04:36:00,71.1,60.8,30.05,NNE,15,4.6,4.6,70,0.00,CLR,,0.00,WeatherDisplay:10.37,2013-05-14 08:36:00,
2013-05-14 04:41:00,71.0,60.7,30.05,NE,38,4.6,4.6,70,0.00,CLR,,0.00,WeatherDisplay:10.37,2013-05-14 08:41:00,
2013-05-14 04:46:00,71.0,60.7,30.05,North,10,5.8,5.8,70,0.00,CLR,,0.00,WeatherDisplay:10.37,2013-05-14 08:46:00,
2013-05-14 04:51:00,70.9,60.6,30.05,North,5,5.8,5.8,70,0.00,CLR,,0.00,WeatherDisplay:10.37,2013-05-14 08:51:00,
2013-05-14 04:56:00,70.9,60.6,30.05,North,360,4.6,4.6,70,0.00,CLR,,0.00,WeatherDisplay:10.37,2013-05-14 08:56:00,
2013-05-14 05:01:00,70.8,60.5,30.05,NNE,22,4.6,4.6,70,0.00,CLR,,0.00,WeatherDisplay:10.37,2013-05-14 09:01:00,
2013-05-14 05:06:00,70.7,60.4,30.05,NNE,13,4.6,4.6,70,0.00,CLR,,0.00,WeatherDisplay:10.37,2013-05-14 09:06:00,
2013-05-14 05:11:00,70.6,60.3,30.05,NE,35,3.5,3.5,70,0.00,CLR,,0.00,WeatherDisplay:10.37,2013-05-14 09:11:00,
2013-05-14 05:16:00,70.5,60.6,30.05,NNE,18,6.0,6.0,71,0.00,CLR,,0.00,WeatherDisplay:10.37,2013-05-14 09:16:00,
2013-05-14 05:21:00,70.5,60.2,30.06,North,351,5.8,5.8,70,0.00,CLR,,0.00,WeatherDisplay:10.37,2013-05-14 09:21:00,
2013-05-14 05:26:00,70.6,60.3,30.06,NNE,29,8.1,8.1,70,0.00,CLR,,0.00,WeatherDisplay:10.37,2013-05-14 09:26:00,
2013-05-14 05:31:00,70.7,60.0,30.06,North,355,10.4,10.4,69,0.00,CLR,,0.00,WeatherDisplay:10.37,2013-05-14 09:31:00,
2013-05-14 05:36:00,70.8,60.1,30.06,NNE,19,6.0,6.0,69,0.00,CLR,,0.00,WeatherDisplay:10.37,2013-05-14 09:36:00,
2013-05-14 05:41:00,70.9,59.8,30.06,NNE,26,11.5,11.5,68,0.00,CLR,,0.00,WeatherDisplay:10.37,2013-05-14 09:41:00,
2013-05-14 05:46:00,70.9,59.8,30.06,NNE,21,6.9,6.9,68,0.00,CLR,,0.00,WeatherDisplay:10.37,2013-05-14 09:46:00,
2013-05-14 05:51:00,71.0,59.5,30.06,NNE,19,6.9,6.9,67,0.00,CLR,,0.00,WeatherDisplay:10.37,2013-05-14 09:51:00,
2013-05-14 05:56:00,71.1,59.6,30.07,NNE,22,6.0,6.0,67,0.00,CLR,,0.00,WeatherDisplay:10.37,2013-05-14 09:56:00,
2013-05-14 06:01:00,71.1,59.6,30.07,NNE,26,11.5,11.5,67,0.00,CLR,,0.00,WeatherDisplay:10.37,2013-05-14 10:01:00,
2013-05-14 06:06:00,71.1,59.2,30.07,NNE,14,10.4,10.4,66,0.00,CLR,,0.00,WeatherDisplay:10.37,2013-05-14 10:06:00,
2013-05-14 06:11:00,71.1,59.2,30.07,NNE,30,11.5,11.5,66,0.00,CLR,,0.00,WeatherDisplay:10.37,2013-05-14 10:11:00,
2013-05-14 06:16:00,71.1,59.2,30.07,NNE,28,10.4,10.4,66,0.00,CLR,,0.00,WeatherDisplay:10.37,2013-05-14 10:16:00,
2013-05-14 06:21:00,71.1,59.2,30.07,NNE,28,10.0,10.0,66,0.00,CLR,,0.00,WeatherDisplay:10.37,2013-05-14 10:21:00,
2013-05-14 06:26:00,71.0,59.1,30.07,NE,42,9.2,9.2,66,0.00,CLR,,0.00,WeatherDisplay:10.37,2013-05-14 10:26:00,
2013-05-14 06:31:00,71.0,59.5,30.07,NNE,20,6.9,6.9,67,0.00,CLR,,0.00,WeatherDisplay:10.37,2013-05-14 10:31:00,
2013-05-14 06:36:00,71.0,59.5,30.07,NNE,13,9.2,9.2,67,0.00,CLR,,0.00,WeatherDisplay:10.37,2013-05-14 10:36:00,
2013-05-14 06:41:00,71.0,59.5,30.08,ENE,65,5.8,5.8,67,0.00,CLR,,0.00,WeatherDisplay:10.37,2013-05-14 10:41:00,
2013-05-14 06:46:00,70.9,59.4,30.08,NNE,32,6.9,6.9,67,0.00,CLR,,0.00,WeatherDisplay:10.37,2013-05-14 10:46:00,
2013-05-14 06:51:00,70.9,59.4,30.08,North,11,4.0,4.0,67,0.00,CLR,,0.00,WeatherDisplay:10.37,2013-05-14 10:51:00,
2013-05-14 06:56:00,70.9,59.4,30.08,NE,36,10.4,10.4,67,0.00,CLR,,0.00,WeatherDisplay:10.37,2013-05-14 10:56:00,
2013-05-14 07:01:00,70.9,59.4,30.08,NE,44,6.9,6.9,67,0.00,CLR,,0.00,WeatherDisplay:10.37,2013-05-14 11:01:00,
2013-05-14 07:06:00,71.0,59.5,30.08,NNE,30,6.9,6.9,67,0.00,CLR,,0.00,WeatherDisplay:10.37,2013-05-14 11:06:00,
2013-05-14 07:11:00,71.1,59.6,30.09,NE,52,6.9,6.9,67,0.00,CLR,,0.00,WeatherDisplay:10.37,2013-05-14 11:11:00,
2013-05-14 07:16:00,71.3,59.8,30.09,North,9,6.0,6.0,67,0.00,CLR,,0.00,WeatherDisplay:10.37,2013-05-14 11:16:00,
2013-05-14 07:21:00,71.5,60.4,30.09,ENE,59,7.0,7.0,68,0.00,CLR,,0.00,WeatherDisplay:10.37,2013-05-14 11:21:00,
2013-05-14 07:26:00,71.7,60.2,30.09,ENE,60,9.2,9.2,67,0.00,CLR,,0.00,WeatherDisplay:10.37,2013-05-14 11:26:00,
2013-05-14 07:31:00,72.0,60.0,30.09,NE,56,9.0,9.0,66,0.00,CLR,,0.00,WeatherDisplay:10.37,2013-05-14 11:31:00,
2013-05-14 07:36:00,72.5,60.1,30.09,NNE,23,10.4,10.4,65,0.00,CLR,,0.00,WeatherDisplay:10.37,2013-05-14 11:36:00,
2013-05-14 07:41:00,72.9,60.4,30.09,ENE,69,6.9,6.9,65,0.00,CLR,,0.00,WeatherDisplay:10.37,2013-05-14 11:41:00,
2013-05-14 07:46:00,73.3,60.8,30.10,NE,55,5.0,5.0,65,0.00,CLR,,0.00,WeatherDisplay:10.37,2013-05-14 11:46:00,
2013-05-14 07:51:00,73.7,61.2,30.10,ENE,74,10.4,10.4,65,0.00,CLR,,0.00,WeatherDisplay:10.37,2013-05-14 11:51:00,
2013-05-14 07:56:00,73.9,60.5,30.10,NE,51,5.8,5.8,63,0.00,CLR,,0.00,WeatherDisplay:10.37,2013-05-14 11:56:00,
2013-05-14 08:01:00,74.2,60.8,30.10,NNE,27,9.2,9.2,63,0.00,CLR,,0.00,WeatherDisplay:10.37,2013-05-14 12:01:00,
2013-05-14 08:06:00,74.5,60.6,30.10,NE,34,10.4,10.4,62,0.00,CLR,,0.00,WeatherDisplay:10.37,2013-05-14 12:06:00,
2013-05-14 08:11:00,74.5,59.7,30.11,NE,55,12.7,12.7,60,0.00,CLR,,0.00,WeatherDisplay:10.37,2013-05-14 12:11:00,
2013-05-14 08:16:00,74.6,60.3,30.11,NE,40,9.2,9.2,61,0.00,CLR,,0.00,WeatherDisplay:10.37,2013-05-14 12:16:00,
2013-05-14 08:21:00,74.6,59.8,30.11,East,79,8.1,8.1,60,0.00,CLR,,0.00,WeatherDisplay:10.37,2013-05-14 12:21:00,
2013-05-14 08:26:00,74.9,60.1,30.11,NE,46,11.5,11.5,60,0.00,CLR,,0.00,WeatherDisplay:10.37,2013-05-14 12:26:00,
2013-05-14 08:31:00,75.1,60.3,30.11,NE,40,11.5,11.5,60,0.00,CLR,,0.00,WeatherDisplay:10.37,2013-05-14 12:31:00,
2013-05-14 08:36:00,75.0,60.2,30.11,ENE,65,11.5,11.5,60,0.00,CLR,,0.00,WeatherDisplay:10.37,2013-05-14 12:36:00,
2013-05-14 08:41:00,75.0,59.7,30.12,NNE,26,9.2,9.2,59,0.00,CLR,,0.00,WeatherDisplay:10.37,2013-05-14 12:41:00,
2013-05-14 08:46:00,75.2,59.4,30.11,NE,44,8.1,8.1,58,0.00,CLR,,0.00,WeatherDisplay:10.37,2013-05-14 12:46:00,
2013-05-14 08:51:00,75.2,58.9,30.12,NE,51,11.5,11.5,57,0.00,CLR,,0.00,WeatherDisplay:10.37,2013-05-14 12:51:00,
2013-05-14 08:56:00,75.0,59.7,30.12,NNE,28,11.5,11.5,59,0.00,CLR,,0.00,WeatherDisplay:10.37,2013-05-14 12:56:00,
2013-05-14 09:01:00,75.2,59.9,30.12,NNW,333,13.8,13.8,59,0.00,CLR,,0.00,WeatherDisplay:10.37,2013-05-14 13:01:00,
2013-05-14 09:06:00,75.3,59.5,30.12,ENE,57,15.0,15.0,58,0.00,CLR,,0.00,WeatherDisplay:10.37,2013-05-14 13:06:00,
2013-05-14 09:11:00,75.8,59.5,30.12,NNE,24,18.4,18.4,57,0.00,CLR,,0.00,WeatherDisplay:10.37,2013-05-14 13:11:00,
2013-05-14 09:16:00,75.8,59.5,30.12,NE,40,12.7,12.7,57,0.00,CLR,,0.00,WeatherDisplay:10.37,2013-05-14 13:16:00,
2013-05-14 09:21:00,75.7,59.4,30.13,ENE,66,14.0,14.0,57,0.00,CLR,,0.00,WeatherDisplay:10.37,2013-05-14 13:21:00,
2013-05-14 09:26:00,75.4,58.6,30.13,ENE,57,15.0,15.0,56,0.00,CLR,,0.00,WeatherDisplay:10.37,2013-05-14 13:26:00,
2013-05-14 09:31:00,75.5,59.2,30.13,NNE,19,13.8,13.8,57,0.00,CLR,,0.00,WeatherDisplay:10.37,2013-05-14 13:31:00,
2013-05-14 09:36:00,76.0,58.2,30.13,NNE,32,13.8,13.8,54,0.00,CLR,,0.00,WeatherDisplay:10.37,2013-05-14 13:36:00,
2013-05-14 09:41:00,76.2,58.3,30.13,NE,40,11.5,11.5,54,0.00,CLR,,0.00,WeatherDisplay:10.37,2013-05-14 13:41:00,
2013-05-14 09:46:00,76.4,59.0,30.13,ENE,57,11.5,11.5,55,0.00,CLR,,0.00,WeatherDisplay:10.37,2013-05-14 13:46:00,
2013-05-14 09:51:00,76.3,58.4,30.13,ENE,63,6.0,6.0,54,0.00,CLR,,0.00,WeatherDisplay:10.37,2013-05-14 13:51:00,
2013-05-14 09:56:00,76.4,59.5,30.13,ENE,67,14.0,14.0,56,0.00,CLR,,0.00,WeatherDisplay:10.37,2013-05-14 13:56:00,
2013-05-14 10:01:00,76.0,60.2,30.13,NNE,26,11.5,11.5,58,0.00,CLR,,0.00,WeatherDisplay:10.37,2013-05-14 14:01:00,
2013-05-14 10:06:00,76.0,59.7,30.13,East,98,11.5,11.5,57,0.00,CLR,,0.00,WeatherDisplay:10.37,2013-05-14 14:06:00,
2013-05-14 10:11:00,76.0,59.2,30.14,NE,54,10.4,10.4,56,0.00,CLR,,0.00,WeatherDisplay:10.37,2013-05-14 14:11:00,
2013-05-14 10:16:00,75.9,59.1,30.14,ENE,76,19.6,19.6,56,0.00,CLR,,0.00,WeatherDisplay:10.37,2013-05-14 14:16:00,
2013-05-14 10:21:00,75.4,59.1,30.14,NE,43,15.0,15.0,57,0.00,CLR,,0.00,WeatherDisplay:10.37,2013-05-14 14:21:00,
2013-05-14 10:26:00,75.6,58.3,30.14,North,360,11.5,11.5,55,0.00,CLR,,0.00,WeatherDisplay:10.37,2013-05-14 14:26:00,
2013-05-14 10:31:00,76.4,58.0,30.14,ENE,62,13.0,13.0,53,0.00,CLR,,0.00,WeatherDisplay:10.37,2013-05-14 14:31:00,
2013-05-14 10:36:00,76.0,59.2,30.14,NE,45,15.0,15.0,56,0.00,CLR,,0.00,WeatherDisplay:10.37,2013-05-14 14:36:00,
2013-05-14 10:41:00,76.5,58.1,30.14,ENE,60,13.8,13.8,53,0.00,CLR,,0.00,WeatherDisplay:10.37,2013-05-14 14:41:00,
2013-05-14 10:46:00,76.1,58.8,30.14,ENE,57,10.4,10.4,55,0.00,CLR,,0.00,WeatherDisplay:10.37,2013-05-14 14:46:00,
2013-05-14 10:51:00,76.3,58.4,30.14,NE,35,8.1,8.1,54,0.00,CLR,,0.00,WeatherDisplay:10.37,2013-05-14 14:51:00,
2013-05-14 10:56:00,77.4,59.5,30.15,NNE,27,11.5,11.5,54,0.00,CLR,,0.00,WeatherDisplay:10.37,2013-05-14 14:56:00,
2013-05-14 11:01:00,77.4,57.9,30.14,East,82,13.8,13.8,51,0.00,CLR,,0.00,WeatherDisplay:10.37,2013-05-14 15:01:00,
2013-05-14 11:06:00,77.8,57.7,30.14,NNE,18,9.2,9.2,50,0.00,CLR,,0.00,WeatherDisplay:10.37,2013-05-14 15:06:00,
2013-05-14 11:11:00,77.9,57.8,30.15,East,86,11.5,11.5,50,0.00,CLR,,0.00,WeatherDisplay:10.37,2013-05-14 15:11:00,
2013-05-14 11:16:00,77.6,59.1,30.15,ESE,103,13.8,13.8,53,0.00,CLR,,0.00,WeatherDisplay:10.37,2013-05-14 15:16:00,
2013-05-14 11:21:00,77.3,59.4,30.15,NE,43,10.4,10.4,54,0.00,CLR,,0.00,WeatherDisplay:10.37,2013-05-14 15:21:00,
2013-05-14 11:26:00,77.1,58.6,30.15,NE,53,16.1,16.1,53,0.00,CLR,,0.00,WeatherDisplay:10.37,2013-05-14 15:26:00,
2013-05-14 11:31:00,76.6,58.2,30.15,NE,37,12.7,12.7,53,0.00,CLR,,0.00,WeatherDisplay:10.37,2013-05-14 15:31:00,
2013-05-14 11:36:00,76.8,58.9,30.15,ENE,65,10.4,10.4,54,0.00,CLR,,0.00,WeatherDisplay:10.37,2013-05-14 15:36:00,
2013-05-14 11:41:00,77.4,58.4,30.15,NNE,19,7.0,7.0,52,0.00,CLR,,0.00,WeatherDisplay:10.37,2013-05-14 15:41:00,
2013-05-14 11:46:00,77.6,58.0,30.15,ENE,59,11.5,11.5,51,0.00,CLR,,0.00,WeatherDisplay:10.37,2013-05-14 15:46:00,
2013-05-14 11:51:00,77.4,57.9,30.15,ESE,105,15.0,15.0,51,0.00,CLR,,0.00,WeatherDisplay:10.37,2013-05-14 15:51:00,
2013-05-14 11:56:00,76.2,59.4,30.15,ENE,77,10.4,10.4,56,0.00,CLR,,0.00,WeatherDisplay:10.37,2013-05-14 15:56:00,
2013-05-14 12:01:00,76.1,58.8,30.15,ENE,63,10.4,10.4,55,0.00,CLR,,0.00,WeatherDisplay:10.37,2013-05-14 16:01:00,
2013-05-14 12:06:00,76.7,58.8,30.15,NE,34,13.8,13.8,54,0.00,CLR,,0.00,WeatherDisplay:10.37,2013-05-14 16:06:00,
2013-05-14 12:11:00,76.6,58.7,30.15,East,90,15.0,15.0,54,0.00,CLR,,0.00,WeatherDisplay:10.37,2013-05-14 16:11:00,
2013-05-14 12:16:00,76.6,58.2,30.15,NE,37,13.8,13.8,53,0.00,CLR,,0.00,WeatherDisplay:10.37,2013-05-14 16:16:00,
2013-05-14 12:21:00,77.1,58.1,30.15,ENE,65,6.0,6.0,52,0.00,CLR,,0.00,WeatherDisplay:10.37,2013-05-14 16:21:00,
2013-05-14 12:26:00,77.7,59.2,30.15,ENE,67,17.3,17.3,53,0.00,CLR,,0.00,WeatherDisplay:10.37,2013-05-14 16:26:00,
2013-05-14 12:31:00,76.8,57.8,30.14,East,88,15.0,15.0,52,0.00,CLR,,0.00,WeatherDisplay:10.37,2013-05-14 16:31:00,
2013-05-14 12:36:00,76.5,57.6,30.14,NE,56,11.5,11.5,52,0.00,CLR,,0.00,WeatherDisplay:10.37,2013-05-14 16:36:00,
2013-05-14 12:41:00,77.0,58.0,30.14,NE,47,11.5,11.5,52,0.00,CLR,,0.00,WeatherDisplay:10.37,2013-05-14 16:41:00,
2013-05-14 12:46:00,76.4,57.5,30.15,NE,40,15.0,15.0,52,0.00,CLR,,0.00,WeatherDisplay:10.37,2013-05-14 16:46:00,
2013-05-14 12:51:00,76.4,58.0,30.15,ENE,69,11.5,11.5,53,0.00,CLR,,0.00,WeatherDisplay:10.37,2013-05-14 16:51:00,
2013-05-14 12:56:00,77.0,59.1,30.15,ENE,59,18.4,18.4,54,0.00,CLR,,0.00,WeatherDisplay:10.37,2013-05-14 16:56:00,
2013-05-14 13:01:00,76.7,58.3,30.15,NE,44,5.8,5.8,53,0.00,CLR,,0.00,WeatherDisplay:10.37,2013-05-14 17:01:00,
2013-05-14 13:06:00,76.5,58.1,30.15,ENE,76,11.5,11.5,53,0.00,CLR,,0.00,WeatherDisplay:10.37,2013-05-14 17:06:00,
2013-05-14 13:11:00,76.9,57.9,30.15,ENE,74,16.1,16.1,52,0.00,CLR,,0.00,WeatherDisplay:10.37,2013-05-14 17:11:00,
2013-05-14 13:16:00,77.1,57.6,30.15,ENE,64,10.4,10.4,51,0.00,CLR,,0.00,WeatherDisplay:10.37,2013-05-14 17:16:00,
2013-05-14 13:21:00,77.0,57.5,30.15,NE,48,9.2,9.2,51,0.00,CLR,,0.00,WeatherDisplay:10.37,2013-05-14 17:21:00,
2013-05-14 13:26:00,77.2,57.7,30.14,East,82,9.2,9.2,51,0.00,CLR,,0.00,WeatherDisplay:10.37,2013-05-14 17:26:00,
2013-05-14 13:31:00,77.9,58.3,30.14,ENE,62,11.5,11.5,51,0.00,CLR,,0.00,WeatherDisplay:10.37,2013-05-14 17:31:00,
2013-05-14 13:36:00,77.7,57.6,30.14,ENE,67,11.5,11.5,50,0.00,CLR,,0.00,WeatherDisplay:10.37,2013-05-14 17:36:00,
2013-05-14 13:41:00,76.8,57.8,30.15,ENE,63,11.5,11.5,52,0.00,CLR,,0.00,WeatherDisplay:10.37,2013-05-14 17:41:00,
2013-05-14 13:46:00,77.0,59.1,30.14,ESE,117,11.5,11.5,54,0.00,CLR,,0.00,WeatherDisplay:10.37,2013-05-14 17:46:00,
2013-05-14 13:51:00,77.4,58.4,30.14,ESE,103,11.5,11.5,52,0.00,CLR,,0.00,WeatherDisplay:10.37,2013-05-14 17:51:00,
2013-05-14 13:56:00,77.2,58.2,30.14,NE,52,15.0,15.0,52,0.00,CLR,,0.00,WeatherDisplay:10.37,2013-05-14 17:56:00,
2013-05-14 14:01:00,76.8,58.4,30.14,North,5,11.5,11.5,53,0.00,CLR,,0.00,WeatherDisplay:10.37,2013-05-14 18:01:00,
2013-05-14 14:06:00,77.4,58.4,30.14,ENE,58,11.5,11.5,52,0.00,CLR,,0.00,WeatherDisplay:10.37,2013-05-14 18:06:00,
2013-05-14 14:11:00,78.0,58.9,30.14,ENE,65,11.5,11.5,52,0.00,CLR,,0.00,WeatherDisplay:10.37,2013-05-14 18:11:00,
2013-05-14 14:16:00,78.2,58.6,30.14,ENE,65,12.0,12.0,51,0.00,CLR,,0.00,WeatherDisplay:10.37,2013-05-14 18:16:00,
2013-05-14 14:21:00,77.8,57.7,30.14,ENE,72,15.0,15.0,50,0.00,CLR,,0.00,WeatherDisplay:10.37,2013-05-14 18:21:00,
2013-05-14 14:26:00,77.6,58.0,30.14,ENE,65,11.5,11.5,51,0.00,CLR,,0.00,WeatherDisplay:10.37,2013-05-14 18:26:00,
2013-05-14 14:31:00,76.9,59.0,30.14,NE,51,11.5,11.5,54,0.00,CLR,,0.00,WeatherDisplay:10.37,2013-05-14 18:31:00,
2013-05-14 14:36:00,77.3,58.3,30.13,NE,55,11.5,11.5,52,0.00,CLR,,0.00,WeatherDisplay:10.37,2013-05-14 18:36:00,
2013-05-14 14:41:00,78.0,58.4,30.13,NE,53,18.4,18.4,51,0.00,CLR,,0.00,WeatherDisplay:10.37,2013-05-14 18:41:00,
2013-05-14 14:46:00,78.4,56.5,30.13,NE,47,5.8,5.8,47,0.00,CLR,,0.00,WeatherDisplay:10.37,2013-05-14 18:46:00,
2013-05-14 14:51:00,78.8,56.9,30.13,NE,41,10.4,10.4,47,0.00,CLR,,0.00,WeatherDisplay:10.37,2013-05-14 18:51:00,
2013-05-14 14:56:00,78.9,58.1,30.13,ENE,59,16.1,16.1,49,0.00,CLR,,0.00,WeatherDisplay:10.37,2013-05-14 18:56:00,
2013-05-14 15:01:00,77.8,57.7,30.12,East,84,9.0,9.0,50,0.00,CLR,,0.00,WeatherDisplay:10.37,2013-05-14 19:01:00,
2013-05-14 15:06:00,77.4,56.7,30.12,NE,47,17.3,17.3,49,0.00,CLR,,0.00,WeatherDisplay:10.37,2013-05-14 19:06:00,
2013-05-14 15:11:00,77.0,57.5,30.12,ENE,63,11.5,11.5,51,0.00,CLR,,0.00,WeatherDisplay:10.37,2013-05-14 19:11:00,
2013-05-14 15:16:00,77.3,57.2,30.12,NE,51,16.1,16.1,50,0.00,CLR,,0.00,WeatherDisplay:10.37,2013-05-14 19:16:00,
2013-05-14 15:21:00,76.8,56.8,30.12,NE,54,13.8,13.8,50,0.00,CLR,,0.00,WeatherDisplay:10.37,2013-05-14 19:21:00,
2013-05-14 15:26:00,76.7,57.7,30.12,NNE,17,10.4,10.4,52,0.00,CLR,,0.00,WeatherDisplay:10.37,2013-05-14 19:26:00,
2013-05-14 15:31:00,77.2,58.7,30.12,NE,45,15.0,15.0,53,0.00,CLR,,0.00,WeatherDisplay:10.37,2013-05-14 19:31:00,
2013-05-14 15:36:00,77.4,57.9,30.12,ENE,63,8.1,8.1,51,0.00,CLR,,0.00,WeatherDisplay:10.37,2013-05-14 19:36:00,
2013-05-14 15:41:00,77.3,57.8,30.12,NE,55,10.4,10.4,51,0.00,CLR,,0.00,WeatherDisplay:10.37,2013-05-14 19:41:00,
2013-05-14 15:46:00,77.4,57.9,30.12,ENE,74,13.8,13.8,51,0.00,CLR,,0.00,WeatherDisplay:10.37,2013-05-14 19:46:00,
2013-05-14 15:51:00,77.1,59.2,30.12,NE,45,11.5,11.5,54,0.00,CLR,,0.00,WeatherDisplay:10.37,2013-05-14 19:51:00,
2013-05-14 15:56:00,77.3,58.8,30.12,ENE,59,11.5,11.5,53,0.00,CLR,,0.00,WeatherDisplay:10.37,2013-05-14 19:56:00,
2013-05-14 16:01:00,77.2,56.6,30.12,ENE,78,15.0,15.0,49,0.00,CLR,,0.00,WeatherDisplay:10.37,2013-05-14 20:01:00,
2013-05-14 16:06:00,76.7,55.5,30.11,NNE,17,10.4,10.4,48,0.00,CLR,,0.00,WeatherDisplay:10.37,2013-05-14 20:06:00,
2013-05-14 16:11:00,77.3,56.6,30.11,NE,35,11.5,11.5,49,0.00,CLR,,0.00,WeatherDisplay:10.37,2013-05-14 20:11:00,
2013-05-14 16:16:00,77.3,57.2,30.11,ENE,61,15.0,15.0,50,0.00,CLR,,0.00,WeatherDisplay:10.37,2013-05-14 20:16:00,
2013-05-14 16:21:00,77.4,58.4,30.11,ENE,64,12.0,12.0,52,0.00,CLR,,0.00,WeatherDisplay:10.37,2013-05-14 20:21:00,
2013-05-14 16:26:00,77.3,57.8,30.11,ENE,77,6.9,6.9,51,0.00,CLR,,0.00,WeatherDisplay:10.37,2013-05-14 20:26:00,
2013-05-14 16:31:00,77.4,57.3,30.11,NE,40,9.2,9.2,50,0.00,CLR,,0.00,WeatherDisplay:10.37,2013-05-14 20:31:00,
2013-05-14 16:36:00,77.7,57.0,30.11,NE,35,9.2,9.2,49,0.00,CLR,,0.00,WeatherDisplay:10.37,2013-05-14 20:36:00,
2013-05-14 16:41:00,77.1,57.0,30.11,NE,54,13.8,13.8,50,0.00,CLR,,0.00,WeatherDisplay:10.37,2013-05-14 20:41:00,
2013-05-14 16:46:00,76.1,57.2,30.11,ENE,75,12.0,12.0,52,0.00,CLR,,0.00,WeatherDisplay:10.37,2013-05-14 20:46:00,
2013-05-14 16:51:00,76.0,57.1,30.11,NE,56,9.2,9.2,52,0.00,CLR,,0.00,WeatherDisplay:10.37,2013-05-14 20:51:00,
2013-05-14 16:56:00,77.1,55.9,30.11,ENE,58,13.8,13.8,48,0.00,CLR,,0.00,WeatherDisplay:10.37,2013-05-14 20:56:00,
2013-05-14 17:01:00,76.7,54.4,30.11,NE,51,10.4,10.4,46,0.00,CLR,,0.00,WeatherDisplay:10.37,2013-05-14 21:01:00,
2013-05-14 17:06:00,76.7,56.7,30.11,NNE,26,12.7,12.7,50,0.00,CLR,,0.00,WeatherDisplay:10.37,2013-05-14 21:06:00,
2013-05-14 17:11:00,77.4,58.4,30.11,ENE,74,8.1,8.1,52,0.00,CLR,,0.00,WeatherDisplay:10.37,2013-05-14 21:11:00,
2013-05-14 17:16:00,77.3,58.3,30.11,North,360,9.2,9.2,52,0.00,CLR,,0.00,WeatherDisplay:10.37,2013-05-14 21:16:00,
2013-05-14 17:21:00,76.7,57.2,30.11,East,88,14.0,14.0,51,0.00,CLR,,0.00,WeatherDisplay:10.37,2013-05-14 21:21:00,
2013-05-14 17:26:00,76.0,59.2,30.11,ENE,75,9.2,9.2,56,0.00,CLR,,0.00,WeatherDisplay:10.37,2013-05-14 21:26:00,
2013-05-14 17:31:00,75.5,58.7,30.11,ENE,68,9.2,9.2,56,0.00,CLR,,0.00,WeatherDisplay:10.37,2013-05-14 21:31:00,
2013-05-14 17:36:00,76.0,58.7,30.10,East,96,10.4,10.4,55,0.00,CLR,,0.00,WeatherDisplay:10.37,2013-05-14 21:36:00,
2013-05-14 17:41:00,76.2,57.8,30.10,ENE,69,15.0,15.0,53,0.00,CLR,,0.00,WeatherDisplay:10.37,2013-05-14 21:41:00,
2013-05-14 17:46:00,75.7,58.4,30.10,East,84,11.5,11.5,55,0.00,CLR,,0.00,WeatherDisplay:10.37,2013-05-14 21:46:00,
2013-05-14 17:51:00,76.3,57.9,30.10,ENE,78,6.9,6.9,53,0.00,CLR,,0.00,WeatherDisplay:10.37,2013-05-14 21:51:00,
2013-05-14 17:56:00,76.5,57.6,30.10,ENE,61,11.5,11.5,52,0.00,CLR,,0.00,WeatherDisplay:10.37,2013-05-14 21:56:00,
2013-05-14 18:01:00,76.5,57.0,30.10,NNE,30,10.4,10.4,51,0.00,CLR,,0.00,WeatherDisplay:10.37,2013-05-14 22:01:00,
2013-05-14 18:06:00,76.2,56.7,30.11,NE,55,11.5,11.5,51,0.00,CLR,,0.00,WeatherDisplay:10.37,2013-05-14 22:06:00,
2013-05-14 18:11:00,76.1,56.7,30.10,ENE,78,9.2,9.2,51,0.00,CLR,,0.00,WeatherDisplay:10.37,2013-05-14 22:11:00,
2013-05-14 18:16:00,76.4,58.0,30.10,East,84,6.9,6.9,53,0.00,CLR,,0.00,WeatherDisplay:10.37,2013-05-14 22:16:00,
2013-05-14 18:21:00,76.3,57.4,30.10,ENE,62,11.5,11.5,52,0.00,CLR,,0.00,WeatherDisplay:10.37,2013-05-14 22:21:00,
2013-05-14 18:26:00,76.0,58.2,30.10,NE,55,10.4,10.4,54,0.00,CLR,,0.00,WeatherDisplay:10.37,2013-05-14 22:26:00,
2013-05-14 18:31:00,75.7,57.9,30.10,ENE,71,6.9,6.9,54,0.00,CLR,,0.00,WeatherDisplay:10.37,2013-05-14 22:31:00,
2013-05-14 18:36:00,75.3,58.5,30.10,East,90,4.6,4.6,56,0.00,CLR,,0.00,WeatherDisplay:10.37,2013-05-14 22:36:00,
2013-05-14 18:41:00,75.4,58.6,30.10,East,80,11.5,11.5,56,0.00,CLR,,0.00,WeatherDisplay:10.37,2013-05-14 22:41:00,
2013-05-14 18:46:00,75.3,58.5,30.10,NE,42,10.4,10.4,56,0.00,CLR,,0.00,WeatherDisplay:10.37,2013-05-14 22:46:00,
2013-05-14 18:51:00,75.1,58.8,30.10,ENE,69,11.5,11.5,57,0.00,CLR,,0.00,WeatherDisplay:10.37,2013-05-14 22:51:00,
2013-05-14 18:56:00,74.8,58.5,30.10,ENE,61,11.5,11.5,57,0.00,CLR,,0.00,WeatherDisplay:10.37,2013-05-14 22:56:00,
2013-05-14 19:01:00,74.6,58.8,30.10,ENE,78,6.9,6.9,58,0.00,CLR,,0.00,WeatherDisplay:10.37,2013-05-14 23:01:00,
2013-05-14 19:06:00,74.8,58.5,30.11,East,95,10.4,10.4,57,0.00,CLR,,0.00,WeatherDisplay:10.37,2013-05-14 23:06:00,
2013-05-14 19:11:00,75.0,58.2,30.10,ESE,122,11.5,11.5,56,0.00,CLR,,0.00,WeatherDisplay:10.37,2013-05-14 23:11:00,
2013-05-14 19:16:00,75.0,57.2,30.11,ENE,57,8.1,8.1,54,0.00,CLR,,0.00,WeatherDisplay:10.37,2013-05-14 23:16:00,
2013-05-14 19:21:00,75.0,57.2,30.10,East,83,11.5,11.5,54,0.00,CLR,,0.00,WeatherDisplay:10.37,2013-05-14 23:21:00,
2013-05-14 19:26:00,74.8,58.1,30.11,NE,36,11.0,11.0,56,0.00,CLR,,0.00,WeatherDisplay:10.37,2013-05-14 23:26:00,
2013-05-14 19:31:00,74.9,58.6,30.11,East,94,8.1,8.1,57,0.00,CLR,,0.00,WeatherDisplay:10.37,2013-05-14 23:31:00,
2013-05-14 19:36:00,74.7,58.0,30.11,ENE,59,5.8,5.8,56,0.00,CLR,,0.00,WeatherDisplay:10.37,2013-05-14 23:36:00,
2013-05-14 19:41:00,74.6,57.9,30.11,NE,51,10.4,10.4,56,0.00,CLR,,0.00,WeatherDisplay:10.37,2013-05-14 23:41:00,
2013-05-14 19:46:00,74.4,58.2,30.11,ENE,78,5.8,5.8,57,0.00,CLR,,0.00,WeatherDisplay:10.37,2013-05-14 23:46:00,
2013-05-14 19:51:00,74.3,58.6,30.11,NE,53,9.0,9.0,58,0.00,CLR,,0.00,WeatherDisplay:10.37,2013-05-14 23:51:00,
2013-05-14 19:56:00,74.2,58.9,30.11,NE,44,5.8,5.8,59,0.00,CLR,,0.00,WeatherDisplay:10.37,2013-05-14 23:56:00,
2013-05-14 20:01:00,74.0,58.3,30.11,ENE,69,10.4,10.4,58,0.00,CLR,,0.00,WeatherDisplay:10.37,2013-05-15 00:01:00,
2013-05-14 20:06:00,73.9,58.2,30.11,ENE,57,9.2,9.2,58,0.00,CLR,,0.00,WeatherDisplay:10.37,2013-05-15 00:06:00,
2013-05-14 20:11:00,73.8,58.1,30.11,NE,46,9.2,9.2,58,0.00,CLR,,0.00,WeatherDisplay:10.37,2013-05-15 00:11:00,
2013-05-14 20:16:00,73.7,58.0,30.11,NE,48,9.2,9.2,58,0.00,CLR,,0.00,WeatherDisplay:10.37,2013-05-15 00:16:00,
2013-05-14 20:21:00,73.5,58.3,30.11,East,84,10.4,10.4,59,0.00,CLR,,0.00,WeatherDisplay:10.37,2013-05-15 00:21:00,
2013-05-14 20:26:00,73.5,58.3,30.11,East,84,5.8,5.8,59,0.00,CLR,,0.00,WeatherDisplay:10.37,2013-05-15 00:26:00,
2013-05-14 20:31:00,73.4,58.2,30.11,ENE,74,6.9,6.9,59,0.00,CLR,,0.00,WeatherDisplay:10.37,2013-05-15 00:31:00,
2013-05-14 20:36:00,73.3,58.1,30.11,NE,48,7.0,7.0,59,0.00,CLR,,0.00,WeatherDisplay:10.37,2013-05-15 00:36:00,
2013-05-14 20:41:00,73.3,57.6,30.11,ENE,68,6.9,6.9,58,0.00,CLR,,0.00,WeatherDisplay:10.37,2013-05-15 00:41:00,
2013-05-14 20:46:00,73.3,57.6,30.12,ENE,72,6.9,6.9,58,0.00,CLR,,0.00,WeatherDisplay:10.37,2013-05-15 00:46:00,
2013-05-14 20:51:00,73.2,57.5,30.12,ENE,72,4.6,4.6,58,0.00,CLR,,0.00,WeatherDisplay:10.37,2013-05-15 00:51:00,
2013-05-14 20:56:00,73.1,57.4,30.12,East,93,6.9,6.9,58,0.00,CLR,,0.00,WeatherDisplay:10.37,2013-05-15 00:56:00,
2013-05-14 21:01:00,73.1,57.9,30.12,ENE,58,4.0,4.0,59,0.00,CLR,,0.00,WeatherDisplay:10.37,2013-05-15 01:01:00,
2013-05-14 21:06:00,73.1,57.9,30.12,ENE,67,3.5,3.5,59,0.00,CLR,,0.00,WeatherDisplay:10.37,2013-05-15 01:06:00,
2013-05-14 21:11:00,73.0,57.3,30.12,East,80,6.9,6.9,58,0.00,CLR,,0.00,WeatherDisplay:10.37,2013-05-15 01:11:00,
2013-05-14 21:16:00,72.9,56.8,30.12,NE,56,6.9,6.9,57,0.00,CLR,,0.00,WeatherDisplay:10.37,2013-05-15 01:16:00,
2013-05-14 21:21:00,73.0,57.3,30.12,East,86,8.1,8.1,58,0.00,CLR,,0.00,WeatherDisplay:10.37,2013-05-15 01:21:00,
2013-05-14 21:26:00,73.1,57.4,30.12,ENE,67,6.9,6.9,58,0.00,CLR,,0.00,WeatherDisplay:10.37,2013-05-15 01:26:00,
2013-05-14 21:31:00,73.0,57.3,30.12,ENE,75,6.9,6.9,58,0.00,CLR,,0.00,WeatherDisplay:10.37,2013-05-15 01:31:00,
2013-05-14 21:36:00,73.0,57.3,30.13,ENE,68,4.6,4.6,58,0.00,CLR,,0.00,WeatherDisplay:10.37,2013-05-15 01:36:00,
2013-05-14 21:41:00,72.9,57.3,30.13,ENE,66,5.8,5.8,58,0.00,CLR,,0.00,WeatherDisplay:10.37,2013-05-15 01:41:00,
2013-05-14 21:46:00,72.9,57.3,30.13,ENE,63,6.0,6.0,58,0.00,CLR,,0.00,WeatherDisplay:10.37,2013-05-15 01:46:00,
2013-05-14 21:51:00,72.9,57.3,30.14,ENE,58,5.8,5.8,58,0.00,CLR,,0.00,WeatherDisplay:10.37,2013-05-15 01:51:00,
2013-05-14 21:56:00,72.8,57.2,30.14,ENE,61,4.6,4.6,58,0.00,CLR,,0.00,WeatherDisplay:10.37,2013-05-15 01:56:00,
2013-05-14 22:01:00,72.8,57.6,30.14,East,80,4.0,4.0,59,0.00,CLR,,0.00,WeatherDisplay:10.37,2013-05-15 02:01:00,
2013-05-14 22:06:00,72.7,57.5,30.14,ENE,57,3.5,3.5,59,0.00,CLR,,0.00,WeatherDisplay:10.37,2013-05-15 02:06:00,
2013-05-14 22:11:00,72.6,57.4,30.14,ENE,63,4.6,4.6,59,0.00,CLR,,0.00,WeatherDisplay:10.37,2013-05-15 02:11:00,
2013-05-14 22:16:00,72.6,57.4,30.14,ENE,60,4.6,4.6,59,0.00,CLR,,0.00,WeatherDisplay:10.37,2013-05-15 02:16:00,
2013-05-14 22:21:00,72.7,57.1,30.14,NE,55,10.4,10.4,58,0.00,CLR,,0.00,WeatherDisplay:10.37,2013-05-15 02:21:00,
2013-05-14 22:26:00,72.7,57.5,30.14,ENE,65,3.5,3.5,59,0.00,CLR,,0.00,WeatherDisplay:10.37,2013-05-15 02:26:00,
2013-05-14 22:31:00,72.7,57.5,30.14,NE,49,4.6,4.6,59,0.00,CLR,,0.00,WeatherDisplay:10.37,2013-05-15 02:31:00,
2013-05-14 22:36:00,72.7,57.1,30.14,NE,55,10.4,10.4,58,0.00,CLR,,0.00,WeatherDisplay:10.37,2013-05-15 02:36:00,
2013-05-14 22:41:00,72.6,57.4,30.14,ENE,67,4.6,4.6,59,0.00,CLR,,0.00,WeatherDisplay:10.37,2013-05-15 02:41:00,
2013-05-14 22:46:00,72.6,57.4,30.15,ENE,71,5.8,5.8,59,0.00,CLR,,0.00,WeatherDisplay:10.37,2013-05-15 02:46:00,
2013-05-14 22:51:00,72.6,57.4,30.15,ENE,78,6.9,6.9,59,0.00,CLR,,0.00,WeatherDisplay:10.37,2013-05-15 02:51:00,
2013-05-14 22:56:00,72.6,57.4,30.15,East,100,9.2,9.2,59,0.00,CLR,,0.00,WeatherDisplay:10.37,2013-05-15 02:56:00,
2013-05-14 23:01:00,72.8,56.7,30.15,ENE,61,6.9,6.9,57,0.00,CLR,,0.00,WeatherDisplay:10.37,2013-05-15 03:01:00,
2013-05-14 23:06:00,72.8,56.7,30.15,ENE,57,10.4,10.4,57,0.00,CLR,,0.00,WeatherDisplay:10.37,2013-05-15 03:06:00,
2013-05-14 23:11:00,72.8,56.7,30.15,NE,39,8.1,8.1,57,0.00,CLR,,0.00,WeatherDisplay:10.37,2013-05-15 03:11:00,
2013-05-14 23:16:00,72.8,56.7,30.15,ENE,72,6.9,6.9,57,0.00,CLR,,0.00,WeatherDisplay:10.37,2013-05-15 03:16:00,
2013-05-14 23:21:00,72.7,56.6,30.15,East,94,4.6,4.6,57,0.00,CLR,,0.00,WeatherDisplay:10.37,2013-05-15 03:21:00,
2013-05-14 23:26:00,72.7,57.1,30.15,East,92,3.5,3.5,58,0.00,CLR,,0.00,WeatherDisplay:10.37,2013-05-15 03:26:00,
2013-05-14 23:31:00,72.5,56.9,30.15,ENE,70,2.3,2.3,58,0.00,CLR,,0.00,WeatherDisplay:10.37,2013-05-15 03:31:00,
2013-05-14 23:36:00,72.4,56.8,30.15,ENE,62,4.6,4.6,58,0.00,CLR,,0.00,WeatherDisplay:10.37,2013-05-15 03:36:00,
2013-05-14 23:41:00,72.4,56.8,30.15,ENE,66,4.0,4.0,58,0.00,CLR,,0.00,WeatherDisplay:10.37,2013-05-15 03:41:00,
2013-05-14 23:46:00,72.3,56.7,30.15,ENE,71,3.5,3.5,58,0.00,CLR,,0.00,WeatherDisplay:10.37,2013-05-15 03:46:00,
2013-05-14 23:51:00,72.3,56.7,30.15,NE,49,4.6,4.6,58,0.00,CLR,,0.00,WeatherDisplay:10.37,2013-05-15 03:51:00,
2013-05-14 23:56:00,72.3,56.7,30.15,ENE,63,3.5,3.5,58,0.00,CLR,,0.00,WeatherDisplay:10.37,2013-05-15 03:56:00,